Salish — WDF6992 — position and weather

sailwx.info

Track history (hours):
 
Tides and Currents Weather Stations Pressure Air Temp Water Temp Dewpoint Dewpoint Depression Visibility Wind Speed Wind Dir Waves Ship Positions

Salish

Owner: WASHINGTON, STATE OF; Department of Transportation, Olympia, WA. More information available from US FCC via Universal Licensing System and Coast Guard Vessel Documentation Center.

Last reported at 2017-Dec-16 05:10 UTC. Time now 2017-Dec-18 11:04 UTC.
Position N 48°07' W 122°46'.

Length 86 m; draft 3.3 m.

Type: Passenger vessel. MMSI: 367480010.

Date/timePositionNaut miles runAvg speedWind from/ knotsBaromVisibWave heightAir tempDewpointWater temp
2017-Dec-16 05:10N 48°07' W 122°46'0 0.0
2017-Dec-16 04:57N 48°07' W 122°46'0 0.0
2017-Dec-16 03:56N 48°07' W 122°46'0 0.1
2017-Dec-15 21:38N 48°07' W 122°45'212.2
2017-Dec-15 21:27N 48°08' W 122°42'1 1.0
2017-Dec-15 20:48N 48°08' W 122°42'2 2.7
2017-Dec-15 20:04N 48°07' W 122°44'112.6
2017-Dec-15 19:57N 48°08' W 122°42'1 2.7
2017-Dec-15 19:25N 48°09' W 122°40'4 5.7
2017-Dec-15 18:43N 48°07' W 122°45'3 9.9
2017-Dec-15 18:27N 48°08' W 122°42'1 2.2
2017-Dec-15 17:52N 48°08' W 122°40'4 5.1
2017-Dec-15 17:09N 48°07' W 122°45'210.9
2017-Dec-15 17:00N 48°07' W 122°43'3 4.5
2017-Dec-15 16:26N 48°09' W 122°40'4 5.8
2017-Dec-15 15:41N 48°07' W 122°45'3 2.8
2017-Dec-15 14:46N 48°08' W 122°42'3 0.3
2017-Dec-15 05:34N 48°06' W 122°45'110.9
2017-Dec-15 05:26N 48°07' W 122°43'0 0.3
2017-Dec-15 04:38N 48°07' W 122°44'1 0.2
2017-Dec-15 00:38N 48°07' W 122°45'1 0.2
2017-Dec-14 18:30N 48°07' W 122°43'2 3.9
2017-Dec-14 17:52N 48°09' W 122°41'4 5.7
2017-Dec-14 17:09N 48°06' W 122°45'211.0
2017-Dec-14 17:00N 48°07' W 122°43'0 0.6
2017-Dec-14 16:12N 48°08' W 122°43'2 3.7
2017-Dec-14 15:39N 48°07' W 122°45'4 5.9
2017-Dec-14 14:55N 48°09' W 122°40'4 0.4
2017-Dec-14 05:32N 48°07' W 122°45'0 8.7
2017-Dec-14 05:29N 48°07' W 122°44'2 2.9
2017-Dec-14 04:45N 48°08' W 122°42'0 0.2
2017-Dec-14 03:03N 48°08' W 122°42'012.6
2017-Dec-14 03:00N 48°08' W 122°42'3 4.7
2017-Dec-14 02:26N 48°07' W 122°45'4 5.2
2017-Dec-14 01:38N 48°09' W 122°40'211.6
2017-Dec-14 01:26N 48°07' W 122°43'2 2.1
2017-Dec-14 00:38N 48°06' W 122°45'111.0
2017-Dec-14 00:30N 48°07' W 122°43'2 3.0
2017-Dec-13 23:50N 48°09' W 122°41'4 5.7
2017-Dec-13 23:12N 48°07' W 122°46'2 8.5
2017-Dec-13 22:59N 48°07' W 122°43'2 2.4
2017-Dec-13 22:19N 48°09' W 122°41'3 5.1
2017-Dec-13 21:40N 48°06' W 122°45'211.3
2017-Dec-13 21:28N 48°08' W 122°42'2 3.9
2017-Dec-13 20:53N 48°09' W 122°40'3 2.9
2017-Dec-13 20:00N 48°07' W 122°43'3 4.4
2017-Dec-13 19:24N 48°09' W 122°40'410.9
2017-Dec-13 19:00N 48°07' W 122°46'4 3.3
2017-Dec-13 17:51N 48°09' W 122°41'1 0.4
2017-Dec-13 16:24N 48°09' W 122°40'4 5.9
2017-Dec-13 15:40N 48°07' W 122°45'4 5.5
2017-Dec-13 14:54N 48°09' W 122°40'4 0.5
2017-Dec-13 05:37N 48°07' W 122°46'1 6.4
2017-Dec-13 05:30N 48°07' W 122°44'2 2.0
2017-Dec-13 04:42N 48°08' W 122°43'2 2.9
2017-Dec-13 03:57N 48°07' W 122°45'2 2.2
2017-Dec-13 02:57N 48°07' W 122°42'0 0.2
2017-Dec-13 01:28N 48°08' W 122°42'2 3.1
2017-Dec-13 00:42N 48°07' W 122°45'2 8.3
2017-Dec-13 00:30N 48°07' W 122°43'2 3.5
2017-Dec-12 23:53N 48°09' W 122°41'4 5.6
2017-Dec-12 23:12N 48°06' W 122°45'412.4
2017-Dec-12 22:54N 48°08' W 122°40'1 1.4
2017-Dec-12 22:23N 48°09' W 122°40'4 4.5
2017-Dec-12 21:34N 48°07' W 122°45'113.3
2017-Dec-12 21:30N 48°07' W 122°43'2 4.3
2017-Dec-12 20:56N 48°09' W 122°41'4 5.1
2017-Dec-12 20:09N 48°07' W 122°45'311.8
2017-Dec-12 19:53N 48°08' W 122°42'1 2.6
2017-Dec-12 19:24N 48°09' W 122°40'1 0.6
2017-Dec-12 17:49N 48°09' W 122°41'2 1.1
2017-Dec-12 16:10N 48°07' W 122°44'2 3.6
2017-Dec-12 15:45N 48°07' W 122°46'3 8.8
2017-Dec-12 15:27N 48°08' W 122°42'0 0.5
2017-Dec-12 14:46N 48°08' W 122°42'3 4.0
2017-Dec-12 14:03N 48°07' W 122°45'0 0.0
2017-Dec-12 13:55N 48°07' W 122°45'0 0.0
2017-Dec-12 05:39N 48°07' W 122°46'2 8.3
2017-Dec-12 05:24N 48°07' W 122°43'1 1.0
2017-Dec-12 04:38N 48°07' W 122°44'1 2.1
2017-Dec-12 03:58N 48°07' W 122°45'3 3.8
2017-Dec-12 03:04N 48°09' W 122°41'112.3
2017-Dec-12 03:00N 48°08' W 122°42'3 5.0
2017-Dec-12 02:29N 48°07' W 122°46'4 3.8
2017-Dec-12 01:34N 48°08' W 122°41'113.3
2017-Dec-12 01:30N 48°08' W 122°42'3 3.1
2017-Dec-12 00:39N 48°07' W 122°45'211.2
2017-Dec-12 00:30N 48°07' W 122°43'1 1.3
2017-Dec-11 23:46N 48°08' W 122°42'3 5.3
2017-Dec-11 23:14N 48°07' W 122°46'310.0
2017-Dec-11 22:58N 48°08' W 122°42'2 3.1
2017-Dec-11 22:27N 48°09' W 122°40'4 5.4
2017-Dec-11 21:40N 48°07' W 122°45'211.4
2017-Dec-11 21:30N 48°08' W 122°43'2 3.6
2017-Dec-11 20:55N 48°09' W 122°41'3 4.0
2017-Dec-11 20:05N 48°07' W 122°44'112.2
2017-Dec-11 19:59N 48°08' W 122°43'2 4.1
2017-Dec-11 19:26N 48°09' W 122°40'4 5.4
2017-Dec-11 18:40N 48°07' W 122°45'211.4
2017-Dec-11 18:30N 48°07' W 122°43'3 4.8
2017-Dec-11 17:56N 48°09' W 122°40'4 9.5
2017-Dec-11 17:28N 48°07' W 122°46'3 5.3
2017-Dec-11 16:59N 48°08' W 122°42'2 3.4
2017-Dec-11 16:27N 48°09' W 122°40'4 8.5
2017-Dec-11 15:56N 48°07' W 122°46'2 4.7
2017-Dec-11 15:30N 48°08' W 122°43'3 4.4
2017-Dec-11 14:56N 48°09' W 122°40'4 3.1
2017-Dec-11 13:30N 48°07' W 122°45'0 0.1
2017-Dec-11 12:47N 48°07' W 122°46'0 0.0
2017-Dec-11 12:10N 48°07' W 122°46'0 0.0
2017-Dec-11 11:55N 48°07' W 122°46'0 0.0
2017-Dec-11 11:25N 48°07' W 122°46'0 0.0
2017-Dec-11 10:59N 48°07' W 122°46'0 0.0
2017-Dec-11 10:30N 48°07' W 122°46'0 0.0
2017-Dec-11 05:37N 48°07' W 122°46'1 6.6
2017-Dec-11 05:30N 48°07' W 122°44'3 5.1
2017-Dec-11 04:52N 48°09' W 122°41'4 4.6
2017-Dec-11 04:01N 48°07' W 122°46'1 6.8
2017-Dec-11 03:50N 48°07' W 122°44'2 3.4
2017-Dec-11 03:08N 48°08' W 122°41'312.2
2017-Dec-11 02:53N 48°07' W 122°45'0 0.9
2017-Dec-11 02:20N 48°07' W 122°44'1 1.5
2017-Dec-11 01:27N 48°08' W 122°42'2 2.9
2017-Dec-11 00:41N 48°07' W 122°45'310.9
2017-Dec-11 00:25N 48°08' W 122°42'2 3.2
2017-Dec-10 23:56N 48°09' W 122°40'4 6.1
2017-Dec-10 23:12N 48°07' W 122°45'410.7
2017-Dec-10 22:53N 48°09' W 122°41'1 2.5
2017-Dec-10 22:29N 48°10' W 122°40'4 5.4
2017-Dec-10 21:39N 48°06' W 122°45'211.4
2017-Dec-10 21:29N 48°07' W 122°43'2 3.5
2017-Dec-10 20:51N 48°09' W 122°41'4 6.1
2017-Dec-10 20:12N 48°07' W 122°46'2 8.7
2017-Dec-10 20:00N 48°07' W 122°43'2 3.0
2017-Dec-10 19:19N 48°09' W 122°41'411.7
2017-Dec-10 19:00N 48°07' W 122°45'1 3.0
2017-Dec-10 18:30N 48°07' W 122°43'3 4.8
2017-Dec-10 17:54N 48°09' W 122°40'4 6.3
2017-Dec-10 17:12N 48°07' W 122°46'2 9.1
2017-Dec-10 16:57N 48°08' W 122°42'2 3.5
2017-Dec-10 16:24N 48°09' W 122°41'410.1
2017-Dec-10 16:00N 48°07' W 122°45'2 4.0
2017-Dec-10 15:28N 48°08' W 122°43'2 3.7
2017-Dec-10 14:54N 48°09' W 122°40'4 6.1
2017-Dec-10 14:12N 48°07' W 122°46'0 0.2
2017-Dec-10 14:00N 48°07' W 122°45'0 0.0
2017-Dec-10 05:38N 48°07' W 122°46'1 6.6
2017-Dec-10 05:27N 48°07' W 122°44'3 5.1
2017-Dec-10 04:52N 48°09' W 122°40'4 5.8
2017-Dec-10 04:09N 48°07' W 122°46'0 0.0
2017-Dec-10 03:57N 48°07' W 122°46'2 2.3
2017-Dec-10 02:57N 48°08' W 122°43'2 2.6
2017-Dec-10 02:20N 48°07' W 122°45'4 5.3
2017-Dec-10 01:38N 48°09' W 122°40'210.6
2017-Dec-10 01:30N 48°08' W 122°42'3 4.3
2017-Dec-10 00:51N 48°07' W 122°46'4 7.6
2017-Dec-10 00:20N 48°09' W 122°41'0 0.5
2017-Dec-09 23:51N 48°09' W 122°41'4 8.2
2017-Dec-09 23:24N 48°07' W 122°46'2 4.2
2017-Dec-09 23:00N 48°07' W 122°43'0 0.3
2017-Dec-09 22:10N 48°07' W 122°43'210.1
2017-Dec-09 22:00N 48°07' W 122°46'3 5.2
2017-Dec-09 21:24N 48°09' W 122°42'1 2.5
2017-Dec-09 20:55N 48°09' W 122°40'3 1.5
2017-Dec-09 19:10N 48°07' W 122°43'1 0.8
2017-Dec-09 18:31N 48°07' W 122°44'3 3.9
2017-Dec-09 17:52N 48°09' W 122°40'2 2.5
2017-Dec-09 17:01N 48°07' W 122°43'1 1.5
2017-Dec-09 16:17N 48°07' W 122°41'3 4.8
2017-Dec-09 15:42N 48°07' W 122°45'2 9.3
2017-Dec-09 15:30N 48°07' W 122°43'2 4.3
2017-Dec-09 14:55N 48°09' W 122°40'4 2.9
2017-Dec-09 13:30N 48°07' W 122°45'1 0.1
2017-Dec-09 03:49N 48°07' W 122°44'4 6.1
2017-Dec-09 03:12N 48°10' W 122°40'310.0
2017-Dec-09 02:52N 48°07' W 122°44'1 1.1
2017-Dec-09 02:20N 48°07' W 122°45'0 0.2
2017-Dec-09 01:20N 48°07' W 122°44'1 1.4
2017-Dec-09 00:49N 48°07' W 122°45'3 3.8
2017-Dec-08 23:56N 48°08' W 122°41'3 5.1
2017-Dec-08 23:18N 48°06' W 122°45'3 4.4
2017-Dec-08 22:31N 48°09' W 122°41'0 5.7
2017-Dec-08 22:28N 48°09' W 122°42'1 0.6
2017-Dec-08 20:56N 48°09' W 122°40'3 3.9
2017-Dec-08 20:04N 48°07' W 122°44'3 5.6
2017-Dec-08 19:28N 48°09' W 122°40'4 6.7
2017-Dec-08 18:50N 48°07' W 122°45'3 9.9
2017-Dec-08 18:29N 48°09' W 122°41'0 0.8
2017-Dec-08 17:58N 48°08' W 122°41'3 7.4
2017-Dec-08 17:30N 48°07' W 122°46'4 6.4
2017-Dec-08 16:48N 48°09' W 122°40'411.0
2017-Dec-08 16:26N 48°07' W 122°45'2 3.7
2017-Dec-08 15:58N 48°08' W 122°43'2 4.0
2017-Dec-08 15:25N 48°09' W 122°40'0 0.3
2017-Dec-08 14:55N 48°09' W 122°40'4 0.4
2017-Dec-08 05:33N 48°06' W 122°45'1 1.2
2017-Dec-08 04:38N 48°07' W 122°44'1 1.3
2017-Dec-08 03:52N 48°07' W 122°45'2 2.5
2017-Dec-08 02:59N 48°08' W 122°42'1 2.2
2017-Dec-08 02:18N 48°07' W 122°44'0 0.1
2017-Dec-07 23:38N 48°07' W 122°44'1 3.2
2017-Dec-07 23:13N 48°07' W 122°46'4 5.6
2017-Dec-07 22:25N 48°09' W 122°40'4 5.7
2017-Dec-07 21:39N 48°07' W 122°45'4 5.7
2017-Dec-07 20:54N 48°09' W 122°40'4 6.3
2017-Dec-07 20:13N 48°07' W 122°46'2 8.1
2017-Dec-07 19:59N 48°08' W 122°43'3 4.4
2017-Dec-07 19:24N 48°09' W 122°40'4 6.1
2017-Dec-07 18:42N 48°07' W 122°46'210.5
2017-Dec-07 18:31N 48°08' W 122°43'2 3.9
2017-Dec-07 17:54N 48°09' W 122°40'4 5.8
2017-Dec-07 17:11N 48°07' W 122°45'2 8.8
2017-Dec-07 16:59N 48°07' W 122°43'2 4.5
2017-Dec-07 16:27N 48°09' W 122°41'4 4.6
2017-Dec-07 15:37N 48°07' W 122°45'212.3
2017-Dec-07 15:25N 48°08' W 122°42'1 2.4
2017-Dec-07 14:52N 48°09' W 122°41'4 0.4
2017-Dec-07 04:19N 48°07' W 122°46'0 0.0
2017-Dec-07 03:57N 48°07' W 122°46'4 5.9
2017-Dec-07 03:12N 48°10' W 122°40'2 8.8
2017-Dec-07 03:00N 48°08' W 122°42'3 4.5
2017-Dec-07 02:23N 48°06' W 122°45'4 4.3
2017-Dec-07 01:34N 48°09' W 122°41'112.9
2017-Dec-07 01:30N 48°08' W 122°42'3 3.6
2017-Dec-07 00:44N 48°07' W 122°46'3 9.7
2017-Dec-07 00:27N 48°08' W 122°42'1 2.0
2017-Dec-06 23:51N 48°09' W 122°41'411.1
2017-Dec-06 23:29N 48°07' W 122°46'2 4.0
2017-Dec-06 22:59N 48°08' W 122°43'1 1.3
2017-Dec-06 22:15N 48°08' W 122°42'3 6.7
2017-Dec-06 21:49N 48°07' W 122°46'2 5.4
2017-Dec-06 21:30N 48°07' W 122°43'2 3.3
2017-Dec-06 20:51N 48°09' W 122°41'  
Track history (hours):
 
Tides and Currents Weather Stations Pressure Air Temp Water Temp Dewpoint Dewpoint Depression Visibility Wind Speed Wind Dir Waves Ship Positions

Salish

Owner: WASHINGTON, STATE OF; Department of Transportation, Olympia, WA. More information available from US FCC via Universal Licensing System and Coast Guard Vessel Documentation Center.

Last reported at 2017-Dec-16 05:10 UTC. Time now 2017-Dec-18 11:04 UTC.
Position N 48°07' W 122°46'.

Length 86 m; draft 3.3 m.

Type: Passenger vessel. MMSI: 367480010.

Date/timePositionNaut miles runAvg speedWind from/ knotsBaromVisibWave heightAir tempDewpointWater temp
2017-Dec-16 05:10N 48°07' W 122°46'0 0.0
2017-Dec-16 04:57N 48°07' W 122°46'0 0.0
2017-Dec-16 03:56N 48°07' W 122°46'0 0.1
2017-Dec-15 21:38N 48°07' W 122°45'212.2
2017-Dec-15 21:27N 48°08' W 122°42'1 1.0
2017-Dec-15 20:48N 48°08' W 122°42'2 2.7
2017-Dec-15 20:04N 48°07' W 122°44'112.6
2017-Dec-15 19:57N 48°08' W 122°42'1 2.7
2017-Dec-15 19:25N 48°09' W 122°40'4 5.7
2017-Dec-15 18:43N 48°07' W 122°45'3 9.9
2017-Dec-15 18:27N 48°08' W 122°42'1 2.2
2017-Dec-15 17:52N 48°08' W 122°40'4 5.1
2017-Dec-15 17:09N 48°07' W 122°45'210.9
2017-Dec-15 17:00N 48°07' W 122°43'3 4.5
2017-Dec-15 16:26N 48°09' W 122°40'4 5.8
2017-Dec-15 15:41N 48°07' W 122°45'3 2.8
2017-Dec-15 14:46N 48°08' W 122°42'3 0.3
2017-Dec-15 05:34N 48°06' W 122°45'110.9
2017-Dec-15 05:26N 48°07' W 122°43'0 0.3
2017-Dec-15 04:38N 48°07' W 122°44'1 0.2
2017-Dec-15 00:38N 48°07' W 122°45'1 0.2
2017-Dec-14 18:30N 48°07' W 122°43'2 3.9
2017-Dec-14 17:52N 48°09' W 122°41'4 5.7
2017-Dec-14 17:09N 48°06' W 122°45'211.0
2017-Dec-14 17:00N 48°07' W 122°43'0 0.6
2017-Dec-14 16:12N 48°08' W 122°43'2 3.7
2017-Dec-14 15:39N 48°07' W 122°45'4 5.9
2017-Dec-14 14:55N 48°09' W 122°40'4 0.4
2017-Dec-14 05:32N 48°07' W 122°45'0 8.7
2017-Dec-14 05:29N 48°07' W 122°44'2 2.9
2017-Dec-14 04:45N 48°08' W 122°42'0 0.2
2017-Dec-14 03:03N 48°08' W 122°42'012.6
2017-Dec-14 03:00N 48°08' W 122°42'3 4.7
2017-Dec-14 02:26N 48°07' W 122°45'4 5.2
2017-Dec-14 01:38N 48°09' W 122°40'211.6
2017-Dec-14 01:26N 48°07' W 122°43'2 2.1
2017-Dec-14 00:38N 48°06' W 122°45'111.0
2017-Dec-14 00:30N 48°07' W 122°43'2 3.0
2017-Dec-13 23:50N 48°09' W 122°41'4 5.7
2017-Dec-13 23:12N 48°07' W 122°46'2 8.5
2017-Dec-13 22:59N 48°07' W 122°43'2 2.4
2017-Dec-13 22:19N 48°09' W 122°41'3 5.1
2017-Dec-13 21:40N 48°06' W 122°45'211.3
2017-Dec-13 21:28N 48°08' W 122°42'2 3.9
2017-Dec-13 20:53N 48°09' W 122°40'3 2.9
2017-Dec-13 20:00N 48°07' W 122°43'3 4.4
2017-Dec-13 19:24N 48°09' W 122°40'410.9
2017-Dec-13 19:00N 48°07' W 122°46'4 3.3
2017-Dec-13 17:51N 48°09' W 122°41'1 0.4
2017-Dec-13 16:24N 48°09' W 122°40'4 5.9
2017-Dec-13 15:40N 48°07' W 122°45'4 5.5
2017-Dec-13 14:54N 48°09' W 122°40'4 0.5
2017-Dec-13 05:37N 48°07' W 122°46'1 6.4
2017-Dec-13 05:30N 48°07' W 122°44'2 2.0
2017-Dec-13 04:42N 48°08' W 122°43'2 2.9
2017-Dec-13 03:57N 48°07' W 122°45'2 2.2
2017-Dec-13 02:57N 48°07' W 122°42'0 0.2
2017-Dec-13 01:28N 48°08' W 122°42'2 3.1
2017-Dec-13 00:42N 48°07' W 122°45'2 8.3
2017-Dec-13 00:30N 48°07' W 122°43'2 3.5
2017-Dec-12 23:53N 48°09' W 122°41'4 5.6
2017-Dec-12 23:12N 48°06' W 122°45'412.4
2017-Dec-12 22:54N 48°08' W 122°40'1 1.4
2017-Dec-12 22:23N 48°09' W 122°40'4 4.5
2017-Dec-12 21:34N 48°07' W 122°45'113.3
2017-Dec-12 21:30N 48°07' W 122°43'2 4.3
2017-Dec-12 20:56N 48°09' W 122°41'4 5.1
2017-Dec-12 20:09N 48°07' W 122°45'311.8
2017-Dec-12 19:53N 48°08' W 122°42'1 2.6
2017-Dec-12 19:24N 48°09' W 122°40'1 0.6
2017-Dec-12 17:49N 48°09' W 122°41'2 1.1
2017-Dec-12 16:10N 48°07' W 122°44'2 3.6
2017-Dec-12 15:45N 48°07' W 122°46'3 8.8
2017-Dec-12 15:27N 48°08' W 122°42'0 0.5
2017-Dec-12 14:46N 48°08' W 122°42'3 4.0
2017-Dec-12 14:03N 48°07' W 122°45'0 0.0
2017-Dec-12 13:55N 48°07' W 122°45'0 0.0
2017-Dec-12 05:39N 48°07' W 122°46'2 8.3
2017-Dec-12 05:24N 48°07' W 122°43'1 1.0
2017-Dec-12 04:38N 48°07' W 122°44'1 2.1
2017-Dec-12 03:58N 48°07' W 122°45'3 3.8
2017-Dec-12 03:04N 48°09' W 122°41'112.3
2017-Dec-12 03:00N 48°08' W 122°42'3 5.0
2017-Dec-12 02:29N 48°07' W 122°46'4 3.8
2017-Dec-12 01:34N 48°08' W 122°41'113.3
2017-Dec-12 01:30N 48°08' W 122°42'3 3.1
2017-Dec-12 00:39N 48°07' W 122°45'211.2
2017-Dec-12 00:30N 48°07' W 122°43'1 1.3
2017-Dec-11 23:46N 48°08' W 122°42'3 5.3
2017-Dec-11 23:14N 48°07' W 122°46'310.0
2017-Dec-11 22:58N 48°08' W 122°42'2 3.1
2017-Dec-11 22:27N 48°09' W 122°40'4 5.4
2017-Dec-11 21:40N 48°07' W 122°45'211.4
2017-Dec-11 21:30N 48°08' W 122°43'2 3.6
2017-Dec-11 20:55N 48°09' W 122°41'3 4.0
2017-Dec-11 20:05N 48°07' W 122°44'112.2
2017-Dec-11 19:59N 48°08' W 122°43'2 4.1
2017-Dec-11 19:26N 48°09' W 122°40'4 5.4
2017-Dec-11 18:40N 48°07' W 122°45'211.4
2017-Dec-11 18:30N 48°07' W 122°43'3 4.8
2017-Dec-11 17:56N 48°09' W 122°40'4 9.5
2017-Dec-11 17:28N 48°07' W 122°46'3 5.3
2017-Dec-11 16:59N 48°08' W 122°42'2 3.4
2017-Dec-11 16:27N 48°09' W 122°40'4 8.5
2017-Dec-11 15:56N 48°07' W 122°46'2 4.7
2017-Dec-11 15:30N 48°08' W 122°43'3 4.4
2017-Dec-11 14:56N 48°09' W 122°40'4 3.1
2017-Dec-11 13:30N 48°07' W 122°45'0 0.1
2017-Dec-11 12:47N 48°07' W 122°46'0 0.0
2017-Dec-11 12:10N 48°07' W 122°46'0 0.0
2017-Dec-11 11:55N 48°07' W 122°46'0 0.0
2017-Dec-11 11:25N 48°07' W 122°46'0 0.0
2017-Dec-11 10:59N 48°07' W 122°46'0 0.0
2017-Dec-11 10:30N 48°07' W 122°46'0 0.0
2017-Dec-11 05:37N 48°07' W 122°46'1 6.6
2017-Dec-11 05:30N 48°07' W 122°44'3 5.1
2017-Dec-11 04:52N 48°09' W 122°41'4 4.6
2017-Dec-11 04:01N 48°07' W 122°46'1 6.8
2017-Dec-11 03:50N 48°07' W 122°44'2 3.4
2017-Dec-11 03:08N 48°08' W 122°41'312.2
2017-Dec-11 02:53N 48°07' W 122°45'0 0.9
2017-Dec-11 02:20N 48°07' W 122°44'1 1.5
2017-Dec-11 01:27N 48°08' W 122°42'2 2.9
2017-Dec-11 00:41N 48°07' W 122°45'310.9
2017-Dec-11 00:25N 48°08' W 122°42'2 3.2
2017-Dec-10 23:56N 48°09' W 122°40'4 6.1
2017-Dec-10 23:12N 48°07' W 122°45'410.7
2017-Dec-10 22:53N 48°09' W 122°41'1 2.5
2017-Dec-10 22:29N 48°10' W 122°40'4 5.4
2017-Dec-10 21:39N 48°06' W 122°45'211.4
2017-Dec-10 21:29N 48°07' W 122°43'2 3.5
2017-Dec-10 20:51N 48°09' W 122°41'4 6.1
2017-Dec-10 20:12N 48°07' W 122°46'2 8.7
2017-Dec-10 20:00N 48°07' W 122°43'2 3.0
2017-Dec-10 19:19N 48°09' W 122°41'411.7
2017-Dec-10 19:00N 48°07' W 122°45'1 3.0
2017-Dec-10 18:30N 48°07' W 122°43'3 4.8
2017-Dec-10 17:54N 48°09' W 122°40'4 6.3
2017-Dec-10 17:12N 48°07' W 122°46'2 9.1
2017-Dec-10 16:57N 48°08' W 122°42'2 3.5
2017-Dec-10 16:24N 48°09' W 122°41'410.1
2017-Dec-10 16:00N 48°07' W 122°45'2 4.0
2017-Dec-10 15:28N 48°08' W 122°43'2 3.7
2017-Dec-10 14:54N 48°09' W 122°40'4 6.1
2017-Dec-10 14:12N 48°07' W 122°46'0 0.2
2017-Dec-10 14:00N 48°07' W 122°45'0 0.0
2017-Dec-10 05:38N 48°07' W 122°46'1 6.6
2017-Dec-10 05:27N 48°07' W 122°44'3 5.1
2017-Dec-10 04:52N 48°09' W 122°40'4 5.8
2017-Dec-10 04:09N 48°07' W 122°46'0 0.0
2017-Dec-10 03:57N 48°07' W 122°46'2 2.3
2017-Dec-10 02:57N 48°08' W 122°43'2 2.6
2017-Dec-10 02:20N 48°07' W 122°45'4 5.3
2017-Dec-10 01:38N 48°09' W 122°40'210.6
2017-Dec-10 01:30N 48°08' W 122°42'3 4.3
2017-Dec-10 00:51N 48°07' W 122°46'4 7.6
2017-Dec-10 00:20N 48°09' W 122°41'0 0.5
2017-Dec-09 23:51N 48°09' W 122°41'4 8.2
2017-Dec-09 23:24N 48°07' W 122°46'2 4.2
2017-Dec-09 23:00N 48°07' W 122°43'0 0.3
2017-Dec-09 22:10N 48°07' W 122°43'210.1
2017-Dec-09 22:00N 48°07' W 122°46'3 5.2
2017-Dec-09 21:24N 48°09' W 122°42'1 2.5
2017-Dec-09 20:55N 48°09' W 122°40'3 1.5
2017-Dec-09 19:10N 48°07' W 122°43'1 0.8
2017-Dec-09 18:31N 48°07' W 122°44'3 3.9
2017-Dec-09 17:52N 48°09' W 122°40'2 2.5
2017-Dec-09 17:01N 48°07' W 122°43'1 1.5
2017-Dec-09 16:17N 48°07' W 122°41'3 4.8
2017-Dec-09 15:42N 48°07' W 122°45'2 9.3
2017-Dec-09 15:30N 48°07' W 122°43'2 4.3
2017-Dec-09 14:55N 48°09' W 122°40'4 2.9
2017-Dec-09 13:30N 48°07' W 122°45'1 0.1
2017-Dec-09 03:49N 48°07' W 122°44'4 6.1
2017-Dec-09 03:12N 48°10' W 122°40'310.0
2017-Dec-09 02:52N 48°07' W 122°44'1 1.1
2017-Dec-09 02:20N 48°07' W 122°45'0 0.2
2017-Dec-09 01:20N 48°07' W 122°44'1 1.4
2017-Dec-09 00:49N 48°07' W 122°45'3 3.8
2017-Dec-08 23:56N 48°08' W 122°41'3 5.1
2017-Dec-08 23:18N 48°06' W 122°45'3 4.4
2017-Dec-08 22:31N 48°09' W 122°41'0 5.7
2017-Dec-08 22:28N 48°09' W 122°42'1 0.6
2017-Dec-08 20:56N 48°09' W 122°40'3 3.9
2017-Dec-08 20:04N 48°07' W 122°44'3 5.6
2017-Dec-08 19:28N 48°09' W 122°40'4 6.7
2017-Dec-08 18:50N 48°07' W 122°45'3 9.9
2017-Dec-08 18:29N 48°09' W 122°41'0 0.8
2017-Dec-08 17:58N 48°08' W 122°41'3 7.4
2017-Dec-08 17:30N 48°07' W 122°46'4 6.4
2017-Dec-08 16:48N 48°09' W 122°40'411.0
2017-Dec-08 16:26N 48°07' W 122°45'2 3.7
2017-Dec-08 15:58N 48°08' W 122°43'2 4.0
2017-Dec-08 15:25N 48°09' W 122°40'0 0.3
2017-Dec-08 14:55N 48°09' W 122°40'4 0.4
2017-Dec-08 05:33N 48°06' W 122°45'1 1.2
2017-Dec-08 04:38N 48°07' W 122°44'1 1.3
2017-Dec-08 03:52N 48°07' W 122°45'2 2.5
2017-Dec-08 02:59N 48°08' W 122°42'1 2.2
2017-Dec-08 02:18N 48°07' W 122°44'0 0.1
2017-Dec-07 23:38N 48°07' W 122°44'1 3.2
2017-Dec-07 23:13N 48°07' W 122°46'4 5.6
2017-Dec-07 22:25N 48°09' W 122°40'4 5.7
2017-Dec-07 21:39N 48°07' W 122°45'4 5.7
2017-Dec-07 20:54N 48°09' W 122°40'4 6.3
2017-Dec-07 20:13N 48°07' W 122°46'2 8.1
2017-Dec-07 19:59N 48°08' W 122°43'3 4.4
2017-Dec-07 19:24N 48°09' W 122°40'4 6.1
2017-Dec-07 18:42N 48°07' W 122°46'210.5
2017-Dec-07 18:31N 48°08' W 122°43'2 3.9
2017-Dec-07 17:54N 48°09' W 122°40'4 5.8
2017-Dec-07 17:11N 48°07' W 122°45'2 8.8
2017-Dec-07 16:59N 48°07' W 122°43'2 4.5
2017-Dec-07 16:27N 48°09' W 122°41'4 4.6
2017-Dec-07 15:37N 48°07' W 122°45'212.3
2017-Dec-07 15:25N 48°08' W 122°42'1 2.4
2017-Dec-07 14:52N 48°09' W 122°41'4 0.4
2017-Dec-07 04:19N 48°07' W 122°46'0 0.0
2017-Dec-07 03:57N 48°07' W 122°46'4 5.9
2017-Dec-07 03:12N 48°10' W 122°40'2 8.8
2017-Dec-07 03:00N 48°08' W 122°42'3 4.5
2017-Dec-07 02:23N 48°06' W 122°45'4 4.3
2017-Dec-07 01:34N 48°09' W 122°41'112.9
2017-Dec-07 01:30N 48°08' W 122°42'3 3.6
2017-Dec-07 00:44N 48°07' W 122°46'3 9.7
2017-Dec-07 00:27N 48°08' W 122°42'1 2.0
2017-Dec-06 23:51N 48°09' W 122°41'411.1
2017-Dec-06 23:29N 48°07' W 122°46'2 4.0
2017-Dec-06 22:59N 48°08' W 122°43'1 1.3
2017-Dec-06 22:15N 48°08' W 122°42'3 6.7
2017-Dec-06 21:49N 48°07' W 122°46'2 5.4
2017-Dec-06 21:30N 48°07' W 122°43'2 3.3
2017-Dec-06 20:51N 48°09' W 122°41'  

Dump ship's entire track history